Vaaraa aiheuttavia sääilmiöitä ei ole odotettavissa.    Ei varoituksia

Webkamera Lisätietoa Webcam


Yksityisiä sääasemia lähellä:

Sääasema Juupajoki

Sääasema Orivesi

Sääasema Muurame

Sääasema Jyväskylä

Sääasema Vihtavuori


Löydät sääaseman tiedot myös:

Finland Weather Exchange

European Weather Network

Weather Underground

AWEKAS

Windy.com



Säätiedot lähimmiltä METAR asemilta

   
EFHA - Halli (Fin-Afb), Finland
Etäisyys asemalta: Kaakko 25 km
Päivitetty: 18.10.2019 06:50
Utua, Pilvistä  
Utua, Pilvistä  
   Tuuli: Kaakko 2.6 m/s
Tuuli: Kaakko 2.6 m/s
Lämpötila: 3°C
Tuulen hyytävyys: 1°C
Kastepiste: 3°C
Kosteus: 100%
Ilmanpaine: 1011 hPa
Pilvisyys: Pilvistä
Näkyvyys: 2 km
Pilvitiedot: Pilvistä 31 m
EFHA 180350Z AUTO 13005KT 2400 BR OVC001 03/03 Q1011
EFJY - Jyvaskyla (Mil/Civ), Finland
Etäisyys asemalta: Koillinen 75 km
Päivitetty: 18.10.2019 06:50
Pilvistä  
Pilvistä  
   Tuuli: Kaakko 2.6 m/s
Tuuli: Kaakko 2.6 m/s
Lämpötila: 2°C
Tuulen hyytävyys: -1°C
Kastepiste: 1°C
Kosteus: 93%
Ilmanpaine: 1011 hPa
Pilvisyys: Pilvistä
Näkyvyys: 6 km
Pilvitiedot: Pilvistä 91 m
EFJY 180350Z AUTO 14005KT 6000 OVC003 02/01 Q1011
EFTP - Tampere/Pirkkala, Finland
Etäisyys asemalta: Lounas 81 km
Päivitetty: 18.10.2019 06:50
Sumua, Pilvistä  
Sumua, Pilvistä  
   Tuuli: Eteläkaakko 2.1 m/s
Tuuli: Eteläkaakko 2.1 m/s
Lämpötila: 4°C
Tuulen hyytävyys: 2°C
Kastepiste: 4°C
Kosteus: 100%
Ilmanpaine: 1011 hPa
Pilvisyys: Pilvistä
Näkyvyys: 1 km
Pilvitiedot: Pilvistä 61 m
EFTP 180350Z AUTO 16004KT 0800 FG VV002 04/04 Q1011
EFSI - Seinajoki-Ilmajoki, Finland
Etäisyys asemalta: Luode 114 km
Päivitetty: 18.10.2019 06:50
Utua, Pilvistä  
Utua, Pilvistä  
   Tuuli: Kaakko 2.1 m/s
Tuuli: Kaakko 2.1 m/s
Lämpötila: 3°C
Tuulen hyytävyys: 1°C
Kastepiste: 3°C
Kosteus: 100%
Ilmanpaine: 1010 hPa
Pilvisyys: Pilvistä
Näkyvyys: 5 km
Pilvitiedot: Pilvistä 61 m
EFSI 180350Z AUTO 14004KT 4500 BR OVC002 03/03 Q1010
EFMI - Mikkeli, Finland
Etäisyys asemalta: Itäkaakko 147 km
Päivitetty: 18.10.2019 06:50
Utua, Pilvistä  
Utua, Pilvistä  
   Tuuli: Itä 1 m/s
Tuuli: Itä 1 m/s
Lämpötila: 2°C
Kastepiste: 2°C
Kosteus: 100%
Ilmanpaine: 1012 hPa
Pilvisyys: Pilvistä
Näkyvyys: 1 km
Pilvitiedot: Pilvistä 91 m
EFMI 180350Z AUTO 09002KT 1300 BR VV003 02/02 Q1012
EFPO - Pori (Mil/Civ), Finland
Etäisyys asemalta: Länsilounas 154 km
Päivitetty: 18.10.2019 06:50
Utua, Pilvistä  
Utua, Pilvistä  
   Tuuli: Kaakko 2.1 m/s
Tuuli: Kaakko 2.1 m/s
Lämpötila: 5°C
Tuulen hyytävyys: 3°C
Kastepiste: 4°C
Kosteus: 93%
Ilmanpaine: 1010 hPa
Pilvisyys: Pilvistä
Näkyvyys: 2 km
Pilvitiedot: Pilvistä 91 m
EFPO 180350Z AUTO 13004KT 1500 BR VV003 05/04 Q1010
EFUT - Utti (Fin-Afb), Finland
Etäisyys asemalta: Kaakko 180 km
Päivitetty: 18.10.2019 06:50
Pilvistä  
Pilvistä  
   Tuuli: Itäkoillinen 2.1 m/s
Tuuli: Itäkoillinen 2.1 m/s
Lämpötila: 3°C
Tuulen hyytävyys: 1°C
Kastepiste: 3°C
Kosteus: 100%
Ilmanpaine: 1012 hPa
Pilvisyys: Pilvistä
Näkyvyys: Enemmän kuin 10 km
Pilvitiedot: Pilvistä 61 m
EFUT 180350Z 06004KT 9999 OVC002 03/03 Q1012
EFVA - Vaasa, Finland
Etäisyys asemalta: Luode 180 km
Päivitetty: 18.10.2019 06:50
Sumupilvilauttoja, Sumua, Pilvistä  
Sumupilvilauttoja, Sumua, Pilvistä  
   Tuuli: Eteläkaakko 1.5 m/s
Tuuli: Eteläkaakko 1.5 m/s
Lämpötila: 3°C
Tuulen hyytävyys: 2°C
Kastepiste: 3°C
Kosteus: 100%
Ilmanpaine: 1010 hPa
Pilvisyys: Pilvistä
Näkyvyys: 1 km
Pilvitiedot: Pilvistä 61 m
EFVA 180350Z AUTO 15003KT 1100 R34/1600N BCFG VV002 03/03 Q1010
EFHK - Helsinki/Vantaa, Finland
Etäisyys asemalta: Etelä 191 km
Päivitetty: 18.10.2019 06:50
Utua, Melkein pilvistä  
Utua, Melkein pilvistä  
   Tuuli: Itä 2.1 m/s
Tuuli: Itä 2.1 m/s
Lämpötila: 4°C
Tuulen hyytävyys: 2°C
Kastepiste: 4°C
Kosteus: 100%
Ilmanpaine: 1012 hPa
Pilvisyys: Melkein pilvistä
Näkyvyys: 3 km
Pilvitiedot: Melkein pilvistä 61 m
EFHK 180350Z 08004KT 3000 BR BKN002 04/04 Q1012 BECMG 2000 BKN001

Alkuperäinen skripti  Saratoga-weather.org Sovitettu myös templatelle  Weerstation Leuven

Laitteet joita käytämme:

Sääasema
Davis VP2

Sääasemaohjelma
Cumulus

Sääaseman palvelin
HP ProBook 6460b

Palveluntarjoaja
Radicenter

Davis VP2

Cumulus

HP ProBook 6460b

Radicenter




Flag Counter Cumulus Top Weather Sites